createdAt,value
2018-02-17T00:02:13.096Z," 0.40"
2018-02-17T00:07:22.521Z," 0.40"
2018-02-17T00:12:28.015Z," 0.40"
2018-02-17T00:17:38.776Z," 0.50"
2018-02-17T00:22:48.210Z," 0.20"
2018-02-17T00:27:55.880Z," 0.40"
2018-02-17T00:33:03.966Z," 0.30"
2018-02-17T00:38:09.857Z," 0.30"
2018-02-17T00:43:15.040Z," 0.40"
2018-02-17T00:48:24.880Z," 0.40"
2018-02-17T00:53:34.233Z," 0.10"
2018-02-17T00:58:43.797Z," 0.10"
2018-02-17T01:03:53.917Z," 0.10"
2018-02-17T01:09:02.274Z," 0.20"
2018-02-17T01:14:10.187Z," 0.10"
2018-02-17T01:19:19.899Z,-0.20
2018-02-17T01:24:28.891Z," 0.10"
2018-02-17T01:29:39.150Z," 0.10"
2018-02-17T01:34:48.191Z," 0.00"
2018-02-17T01:39:57.544Z," 0.20"
2018-02-17T01:45:07.291Z,-0.10
2018-02-17T01:50:15.995Z," 0.30"
2018-02-17T01:55:25.396Z,-0.10
2018-02-17T02:00:34.667Z," 0.00"
2018-02-17T02:05:44.668Z,-0.10
2018-02-17T02:10:51.739Z," 0.00"
2018-02-17T02:16:02.959Z," 0.00"
2018-02-17T02:21:11.280Z," 0.10"
2018-02-17T02:26:22.009Z," 0.20"
2018-02-17T02:31:32.854Z," 0.10"
2018-02-17T02:36:49.385Z," 0.20"
2018-02-17T02:41:57.019Z," 0.10"
2018-02-17T02:47:06.247Z," 0.00"
2018-02-17T02:52:14.788Z," 0.30"
2018-02-17T02:57:24.750Z," 0.20"
2018-02-17T03:02:34.252Z," 0.40"
2018-02-17T03:08:17.938Z," 0.20"
2018-02-17T03:13:12.231Z," 0.50"
2018-02-17T03:18:21.953Z," 0.50"
2018-02-17T03:23:31.520Z," 0.60"
2018-02-17T03:28:42.465Z," 0.70"
2018-02-17T03:33:51.423Z," 0.60"
2018-02-17T03:38:58.140Z," 0.50"
2018-02-17T03:44:07.664Z," 0.50"
2018-02-17T03:49:13.570Z," 0.40"
2018-02-17T03:54:23.352Z," 0.40"
2018-02-17T03:59:33.692Z," 0.50"
2018-02-17T04:04:42.542Z," 0.30"
2018-02-17T04:09:51.310Z," 0.40"
2018-02-17T04:14:57.192Z," 0.50"
2018-02-17T04:20:05.765Z," 0.70"
2018-02-17T04:25:12.195Z," 0.70"
2018-02-17T04:30:18.490Z," 0.70"
2018-02-17T04:35:24.293Z," 0.70"
2018-02-17T04:40:29.999Z," 0.70"
2018-02-17T04:45:33.617Z," 0.80"
2018-02-17T04:50:38.492Z," 0.80"
2018-02-17T04:55:47.210Z," 0.90"
2018-02-17T05:00:52.767Z," 0.80"
2018-02-17T05:05:56.393Z," 0.80"
2018-02-17T05:11:02.264Z," 0.80"
2018-02-17T05:16:07.569Z," 1.00"
2018-02-17T05:21:13.224Z," 0.90"
2018-02-17T05:26:18.275Z," 0.80"
2018-02-17T05:31:23.869Z," 0.90"
2018-02-17T05:36:29.285Z," 0.90"
2018-02-17T05:41:34.773Z," 1.00"
2018-02-17T05:46:44.296Z," 0.70"
2018-02-17T05:51:48.074Z," 0.90"
2018-02-17T05:56:52.785Z," 0.90"
2018-02-17T06:01:58.018Z," 0.80"
2018-02-17T06:07:03.618Z," 1.00"
2018-02-17T06:12:08.568Z," 1.00"
2018-02-17T06:17:14.200Z," 1.00"
2018-02-17T06:22:18.023Z," 1.00"
2018-02-17T06:27:23.015Z," 1.00"
2018-02-17T06:32:28.170Z," 0.90"
2018-02-17T06:37:32.706Z," 0.90"
2018-02-17T13:29:58.488Z,12.40
2018-02-17T13:35:00.635Z,15.20
2018-02-17T13:40:05.065Z,17.00
2018-02-17T13:45:11.330Z,17.20
2018-02-17T13:50:20.857Z,15.70
2018-02-17T13:55:26.582Z,12.90
2018-02-17T14:00:31.668Z,11.50
2018-02-17T14:05:40.247Z,12.80
2018-02-17T14:10:50.224Z,12.30
2018-02-17T14:15:57.935Z,11.30
2018-02-17T14:21:06.961Z,10.50
2018-02-17T14:26:16.248Z,10.00
2018-02-17T14:31:21.744Z," 9.20"
2018-02-17T14:36:29.242Z," 9.70"
2018-02-17T14:41:34.094Z," 9.70"
2018-02-17T14:46:37.715Z," 9.50"
2018-02-17T14:51:47.161Z," 9.40"
2018-02-17T14:56:53.031Z," 9.30"
2018-02-17T15:02:02.956Z," 9.10"
2018-02-17T15:07:08.925Z," 9.20"
2018-02-17T15:12:17.756Z," 8.70"
2018-02-17T15:17:24.435Z," 8.70"
2018-02-17T15:22:29.119Z," 8.50"
2018-02-17T15:27:37.038Z," 8.80"
2018-02-17T15:32:42.906Z," 8.50"
2018-02-17T15:37:48.036Z," 8.50"
2018-02-17T15:42:52.232Z," 8.40"
2018-02-17T15:47:58.391Z," 8.30"
2018-02-17T15:53:03.685Z," 8.20"
2018-02-17T15:58:09.150Z," 8.20"
2018-02-17T16:03:18.627Z," 8.00"
2018-02-17T16:08:27.480Z," 7.80"
2018-02-17T16:13:39.485Z," 7.50"
2018-02-17T16:18:48.450Z," 7.00"
2018-02-17T16:23:55.838Z," 6.80"
2018-02-17T16:29:00.439Z," 6.40"
2018-02-17T16:34:06.809Z," 6.50"
2018-02-17T16:39:16.278Z," 6.10"
2018-02-17T16:44:25.950Z," 5.70"
2018-02-17T16:49:33.214Z," 5.30"
2018-02-17T20:59:37.011Z," 0.10"
2018-02-17T21:04:41.848Z," 0.20"
2018-02-17T21:09:50.090Z," 0.10"
2018-02-17T21:14:57.979Z," 0.10"
2018-02-17T21:20:06.016Z,-0.10
2018-02-17T21:25:14.109Z," 0.00"
2018-02-17T21:30:23.292Z,-0.10
2018-02-17T21:40:38.509Z,-0.20
2018-02-17T21:45:46.971Z,-0.10
2018-02-17T21:50:55.040Z,-0.30
2018-02-17T21:56:03.956Z,-0.50
2018-02-17T22:01:15.953Z,-0.60
2018-02-17T22:06:24.711Z,-0.50
2018-02-17T22:11:29.910Z,-0.60
2018-02-17T22:16:37.106Z,-0.60
2018-02-17T22:21:46.240Z,-0.60
2018-02-17T22:26:54.742Z,-0.60
2018-02-17T22:32:02.658Z,-0.60
2018-02-17T22:37:12.256Z,-0.90
2018-02-17T22:42:21.539Z,-0.80
2018-02-17T22:47:30.942Z,-0.90
2018-02-17T22:52:39.792Z,-0.90
2018-02-17T22:57:53.930Z,-0.90
2018-02-17T23:03:03.633Z,-1.20
2018-02-17T23:08:13.482Z,-1.10
2018-02-17T23:13:22.215Z,-1.00
2018-02-17T23:18:32.420Z,-0.90
2018-02-17T23:23:41.784Z,-0.80
2018-02-17T23:28:51.866Z,-0.90
2018-02-17T23:34:01.646Z,-1.00
2018-02-17T23:39:12.847Z,-1.00
2018-02-17T23:44:21.061Z,-1.00
2018-02-17T23:49:30.599Z,-1.10
2018-02-17T23:54:39.652Z,-1.00
2018-02-17T23:59:48.925Z,-1.10
